createdAt,value
2017-10-14T00:00:32.795Z,21.68
2017-10-14T00:04:36.278Z,21.66
2017-10-14T00:08:39.730Z,21.65
2017-10-14T00:12:43.975Z,21.64
2017-10-14T00:16:47.439Z,21.63
2017-10-14T00:20:50.915Z,21.62
2017-10-14T00:24:54.371Z,21.60
2017-10-14T00:28:57.848Z,21.58
2017-10-14T00:33:01.323Z,21.58
2017-10-14T00:37:04.794Z,21.55
2017-10-14T00:41:09.092Z,21.57
2017-10-14T00:45:12.583Z,21.55
2017-10-14T00:49:16.028Z,21.54
2017-10-14T00:53:19.510Z,21.53
2017-10-14T00:57:22.959Z,21.52
2017-10-14T01:01:27.210Z,21.52
2017-10-14T01:05:30.659Z,21.51
2017-10-14T01:09:34.228Z,21.51
2017-10-14T01:13:37.694Z,21.50
2017-10-14T01:17:41.948Z,21.50
2017-10-14T01:21:45.402Z,21.48
2017-10-14T01:25:48.874Z,21.49
2017-10-14T01:29:52.327Z,21.48
2017-10-14T01:33:55.818Z,21.48
2017-10-14T01:37:59.269Z,21.46
2017-10-14T01:42:03.510Z,21.45
2017-10-14T01:46:06.946Z,21.45
2017-10-14T01:50:10.434Z,21.44
2017-10-14T01:54:13.889Z,21.44
2017-10-14T01:58:17.373Z,21.44
2017-10-14T02:02:20.831Z,21.44
2017-10-14T02:06:25.086Z,21.43
2017-10-14T02:10:28.530Z,21.43
2017-10-14T02:14:32.007Z,21.42
2017-10-14T02:18:35.463Z,21.42
2017-10-14T02:22:38.950Z,21.42
2017-10-14T02:26:42.401Z,21.40
2017-10-14T02:30:45.898Z,21.41
2017-10-14T02:34:50.112Z,21.41
2017-10-14T02:38:54.371Z,21.40
2017-10-14T02:42:57.831Z,21.40
2017-10-14T02:47:01.315Z,21.40
2017-10-14T02:51:04.775Z,21.39
2017-10-14T02:55:09.038Z,21.39
2017-10-14T02:59:12.485Z,21.39
2017-10-14T03:03:15.971Z,21.38
2017-10-14T03:07:19.426Z,21.38
2017-10-14T03:11:23.942Z,21.37
2017-10-14T03:15:28.158Z,21.37
2017-10-14T03:19:31.711Z,21.37
2017-10-14T03:23:35.134Z,21.37
2017-10-14T03:27:38.607Z,21.36
2017-10-14T03:31:42.832Z,21.36
2017-10-14T03:35:46.318Z,21.36
2017-10-14T03:39:49.766Z,21.35
2017-10-14T03:43:53.254Z,21.35
2017-10-14T03:47:56.727Z,21.35
2017-10-14T03:52:00.224Z,21.34
2017-10-14T03:56:03.668Z,21.34
2017-10-14T04:00:07.899Z,21.34
2017-10-14T04:04:12.118Z,21.34
2017-10-14T04:08:16.419Z,21.33
2017-10-14T04:12:19.871Z,21.33
2017-10-14T04:16:23.358Z,21.33
2017-10-14T04:20:27.566Z,21.33
2017-10-14T04:24:31.045Z,21.33
2017-10-14T04:28:34.495Z,21.33
2017-10-14T04:32:38.738Z,21.33
2017-10-14T04:36:42.190Z,21.32
2017-10-14T04:40:45.670Z,21.32
2017-10-14T04:44:49.115Z,21.31
2017-10-14T04:48:52.600Z,21.31
2017-10-14T04:52:56.067Z,21.30
2017-10-14T04:57:00.327Z,21.30
2017-10-14T05:01:03.778Z,21.29
2017-10-14T05:05:07.257Z,21.29
2017-10-14T05:09:10.723Z,21.28
2017-10-14T05:13:14.264Z,21.28
2017-10-14T05:17:17.711Z,21.32
2017-10-14T05:21:21.969Z,21.37
2017-10-14T05:25:25.422Z,21.43
2017-10-14T05:29:28.919Z,21.49
2017-10-14T05:33:32.377Z,21.56
2017-10-14T05:37:36.622Z,21.63
2017-10-14T05:41:40.069Z,21.71
2017-10-14T05:45:43.549Z,21.75
2017-10-14T05:49:47.020Z,21.78
2017-10-14T05:53:51.266Z,21.81
2017-10-14T05:57:54.714Z,21.83
2017-10-14T06:01:58.190Z,21.86
2017-10-14T06:06:01.630Z,21.88
2017-10-14T06:10:05.110Z,21.89
2017-10-14T06:14:08.569Z,21.89
2017-10-14T06:18:12.814Z,21.91
2017-10-14T06:22:16.284Z,21.91
2017-10-14T06:26:19.770Z,21.91
2017-10-14T06:30:23.235Z,21.93
2017-10-14T06:34:26.733Z,21.93
2017-10-14T06:38:30.950Z,21.94
2017-10-14T06:42:35.187Z,21.94
2017-10-14T06:46:38.639Z,21.95
2017-10-14T06:50:42.127Z,21.96
2017-10-14T06:54:45.582Z,21.97
2017-10-14T06:58:49.082Z,21.98
2017-10-14T07:02:52.558Z,21.99
2017-10-14T07:06:56.044Z,21.99
2017-10-14T07:10:59.504Z,22.00
2017-10-14T07:15:03.001Z,22.01
2017-10-14T07:19:06.455Z,22.01
2017-10-14T07:23:10.771Z,22.02
2017-10-14T07:27:14.242Z,22.02
2017-10-14T07:31:17.754Z,22.02
2017-10-14T07:35:21.208Z,22.03
2017-10-14T07:39:24.698Z,22.04
2017-10-14T07:43:28.919Z,22.06
2017-10-14T07:47:33.169Z,22.09
2017-10-14T07:51:36.629Z,22.09
2017-10-14T07:55:40.109Z,22.11
2017-10-14T07:59:43.565Z,22.13
2017-10-14T08:03:47.871Z,22.14
2017-10-14T08:07:51.313Z,22.15
2017-10-14T08:11:55.562Z,22.17
2017-10-14T08:15:59.023Z,22.17
2017-10-14T08:20:02.491Z,22.18
2017-10-14T08:24:05.947Z,22.20
2017-10-14T08:28:10.318Z,22.19
2017-10-14T08:32:13.771Z,22.21
2017-10-14T08:36:17.247Z,22.23
2017-10-14T08:40:20.712Z,22.28
2017-10-14T08:44:24.981Z,22.29
2017-10-14T08:48:28.571Z,22.28
2017-10-14T08:52:32.046Z,22.28
2017-10-14T08:56:36.410Z,22.29
2017-10-14T09:00:39.893Z,22.30
2017-10-14T09:04:44.132Z,22.31
2017-10-14T09:08:48.223Z,22.32
2017-10-14T09:12:52.437Z,22.35
2017-10-14T09:16:55.914Z,22.36
2017-10-14T09:20:59.372Z,22.38
2017-10-14T09:25:03.622Z,22.40
2017-10-14T09:29:07.089Z,22.41
2017-10-14T09:33:10.565Z,22.40
2017-10-14T09:37:14.019Z,22.41
2017-10-14T09:41:18.273Z,22.40
2017-10-14T09:45:21.778Z,22.42
2017-10-14T09:49:25.263Z,22.46
2017-10-14T09:53:29.514Z,22.48
2017-10-14T09:57:33.007Z,22.48
2017-10-14T10:01:36.474Z,22.50
2017-10-14T10:05:39.953Z,22.50
2017-10-14T10:09:43.404Z,22.50
2017-10-14T10:13:47.656Z,22.51
2017-10-14T10:17:51.118Z,22.52
2017-10-14T10:21:54.599Z,22.53
2017-10-14T10:25:58.047Z,22.53
2017-10-14T10:30:01.535Z,22.55
2017-10-14T10:34:04.990Z,22.56
2017-10-14T10:38:08.469Z,22.58
2017-10-14T10:42:11.926Z,22.58
2017-10-14T10:46:15.411Z,22.60
2017-10-14T10:50:18.871Z,22.61
2017-10-14T10:54:22.358Z,22.64
2017-10-14T10:58:25.803Z,22.66
2017-10-14T11:02:29.283Z,22.66
2017-10-14T11:06:32.733Z,22.65
2017-10-14T11:10:37.027Z,22.64
2017-10-14T11:14:40.475Z,22.65
2017-10-14T11:18:43.955Z,22.62
2017-10-14T11:22:47.440Z,22.61
2017-10-14T11:26:50.930Z,22.63
2017-10-14T11:30:54.385Z,22.63
2017-10-14T11:34:58.637Z,22.59
2017-10-14T11:39:02.090Z,22.60
2017-10-14T11:43:05.616Z,22.60
2017-10-14T11:47:09.250Z,22.61
2017-10-14T11:51:13.500Z,22.55
2017-10-14T11:55:16.954Z,22.54
2017-10-14T11:59:20.577Z,22.56
2017-10-14T12:03:24.032Z,22.54
2017-10-14T12:07:27.532Z,22.51
2017-10-14T12:11:30.986Z,22.51
2017-10-14T12:15:34.466Z,22.49
2017-10-14T12:19:37.915Z,22.47
2017-10-14T12:23:42.166Z,22.46
2017-10-14T12:27:45.625Z,22.44
2017-10-14T12:31:49.138Z,22.44
2017-10-14T12:35:52.596Z,22.45
2017-10-14T12:39:56.079Z,22.44
2017-10-14T12:44:00.299Z,22.44
2017-10-14T12:48:04.551Z,22.44
2017-10-14T12:52:08.009Z,22.46
2017-10-14T12:56:11.490Z,22.46
2017-10-14T13:00:14.947Z,22.47
2017-10-14T13:04:19.199Z,22.51
2017-10-14T13:08:22.659Z,22.52
2017-10-14T13:12:26.257Z,22.51
2017-10-14T13:16:29.719Z,22.50
2017-10-14T13:20:33.198Z,22.49
2017-10-14T13:24:36.749Z,22.47
2017-10-14T13:28:40.226Z,22.45
2017-10-14T13:32:44.459Z,22.46
2017-10-14T13:36:48.774Z,22.45
2017-10-14T13:40:53.001Z,22.44
2017-10-14T13:44:57.251Z,22.43
2017-10-14T13:49:00.710Z,22.43
2017-10-14T13:53:04.192Z,22.41
2017-10-14T13:57:07.659Z,22.40
2017-10-14T14:01:11.908Z,22.39
2017-10-14T14:05:15.360Z,22.38
2017-10-14T14:09:18.843Z,22.38
2017-10-14T14:13:22.307Z,22.37
2017-10-14T14:17:25.794Z,22.36
2017-10-14T14:21:29.307Z,22.35
2017-10-14T14:25:33.565Z,22.35
2017-10-14T14:29:37.024Z,22.34
2017-10-14T14:33:40.510Z,22.33
2017-10-14T14:37:43.987Z,22.31
2017-10-14T14:41:47.476Z,22.31
2017-10-14T14:45:51.702Z,22.30
2017-10-14T14:49:55.199Z,22.29
2017-10-14T14:53:59.420Z,22.28
2017-10-14T14:58:03.675Z,22.28
2017-10-14T15:02:07.127Z,22.27
2017-10-14T15:06:10.650Z,22.25
2017-10-14T15:10:14.114Z,22.24
2017-10-14T15:14:17.598Z,22.23
2017-10-14T15:18:21.059Z,22.22
2017-10-14T15:22:24.555Z,22.21
2017-10-14T15:26:28.014Z,22.21
2017-10-14T15:30:31.503Z,22.19
2017-10-14T15:34:36.650Z,22.18
2017-10-14T15:38:41.293Z,22.17
2017-10-14T15:42:45.515Z,22.18
2017-10-14T15:46:50.056Z,22.21
2017-10-14T15:50:54.275Z,22.24
2017-10-14T15:54:58.530Z,22.27
2017-10-14T15:59:01.991Z,22.33
2017-10-14T16:03:05.485Z,22.36
2017-10-14T16:07:08.944Z,22.39
2017-10-14T16:11:12.417Z,22.41
2017-10-14T16:15:15.916Z,22.42
2017-10-14T16:19:19.391Z,22.43
2017-10-14T16:23:22.882Z,22.43
2017-10-14T16:27:26.678Z,22.44
2017-10-14T16:31:30.138Z,22.44
2017-10-14T16:35:33.878Z,22.45
2017-10-14T16:39:38.090Z,22.44
2017-10-14T16:43:41.932Z,22.44
2017-10-14T16:47:46.151Z,22.44
2017-10-14T16:51:50.689Z,22.44
2017-10-14T16:55:54.920Z,22.43
2017-10-14T16:59:58.402Z,22.42
2017-10-14T17:04:01.858Z,22.42
2017-10-14T17:08:05.343Z,22.42
2017-10-14T17:12:08.791Z,22.42
2017-10-14T17:16:12.289Z,22.41
2017-10-14T17:20:15.753Z,22.41
2017-10-14T17:24:19.998Z,22.42
2017-10-14T17:28:23.419Z,22.41
2017-10-14T17:32:26.908Z,22.41
2017-10-14T17:36:30.381Z,22.41
2017-10-14T17:40:33.883Z,22.41
2017-10-14T17:44:37.348Z,22.41
2017-10-14T17:48:41.133Z,22.40
2017-10-14T17:52:45.390Z,22.40
2017-10-14T17:56:48.890Z,22.39
2017-10-14T18:00:52.351Z,22.39
2017-10-14T18:04:55.806Z,22.40
2017-10-14T18:08:59.270Z,22.41
2017-10-14T18:13:02.762Z,22.41
2017-10-14T18:17:06.228Z,22.40
2017-10-14T18:21:10.020Z,22.40
2017-10-14T18:25:14.233Z,22.41
2017-10-14T18:29:18.495Z,22.42
2017-10-14T18:33:21.946Z,22.41
2017-10-14T18:37:25.430Z,22.41
2017-10-14T18:41:28.898Z,22.41
2017-10-14T18:45:32.386Z,22.41
2017-10-14T18:49:36.601Z,22.43
2017-10-14T18:53:40.450Z,22.43
2017-10-14T18:57:43.942Z,22.43
2017-10-14T19:01:48.199Z,22.44
2017-10-14T19:05:51.663Z,22.44
2017-10-14T19:09:55.138Z,22.44
2017-10-14T19:13:58.630Z,22.43
2017-10-14T19:18:02.112Z,22.43
2017-10-14T19:22:05.590Z,22.43
2017-10-14T19:26:09.430Z,22.43
2017-10-14T19:30:14.410Z,22.43
2017-10-14T19:34:18.183Z,22.44
2017-10-14T19:38:22.408Z,22.44
2017-10-14T19:42:26.659Z,22.44
2017-10-14T19:46:30.124Z,22.44
2017-10-14T19:50:33.624Z,22.44
2017-10-14T19:54:37.085Z,22.64
2017-10-14T19:58:40.534Z,22.76
2017-10-14T20:02:43.994Z,22.71
2017-10-14T20:06:47.493Z,22.64
2017-10-14T20:10:50.954Z,22.61
2017-10-14T20:14:54.804Z,22.58
2017-10-14T20:18:58.262Z,22.56
2017-10-14T20:23:01.734Z,22.54
2017-10-14T20:27:05.194Z,22.53
2017-10-14T20:31:09.034Z,22.52
2017-10-14T20:35:13.263Z,22.51
2017-10-14T20:39:17.510Z,22.51
2017-10-14T20:43:20.967Z,22.50
2017-10-14T20:47:24.713Z,22.50
2017-10-14T20:51:28.934Z,22.49
2017-10-14T20:55:33.459Z,22.48
2017-10-14T20:59:37.695Z,22.48
2017-10-14T21:03:42.195Z,22.47
2017-10-14T21:07:45.651Z,22.47
2017-10-14T21:11:49.435Z,22.47
2017-10-14T21:15:53.654Z,22.47
2017-10-14T21:19:57.914Z,22.47
2017-10-14T21:24:01.385Z,22.47
2017-10-14T21:28:05.647Z,22.46
2017-10-14T21:32:09.110Z,22.46
2017-10-14T21:36:12.583Z,22.46
2017-10-14T21:40:16.050Z,22.46
2017-10-14T21:44:20.291Z,22.46
2017-10-14T21:48:23.752Z,22.45
2017-10-14T21:52:27.566Z,22.44
2017-10-14T21:56:31.023Z,22.44
2017-10-14T22:00:34.923Z,22.42
2017-10-14T22:04:39.171Z,22.41
2017-10-14T22:08:42.657Z,22.40
2017-10-14T22:12:46.887Z,22.39
2017-10-14T22:16:50.376Z,22.38
2017-10-14T22:20:54.623Z,22.36
2017-10-14T22:24:58.119Z,22.36
2017-10-14T22:29:02.350Z,22.35
2017-10-14T22:33:06.150Z,22.34
2017-10-14T22:37:10.399Z,22.32
2017-10-14T22:41:13.879Z,22.31
2017-10-14T22:45:18.098Z,22.29
2017-10-14T22:49:21.578Z,22.24
2017-10-14T22:53:25.038Z,22.23
2017-10-14T22:57:28.943Z,22.21
2017-10-14T23:01:33.163Z,22.19
2017-10-14T23:05:37.410Z,22.18
2017-10-14T23:09:40.863Z,22.17
2017-10-14T23:13:44.599Z,22.18
2017-10-14T23:17:48.053Z,22.13
2017-10-14T23:21:51.538Z,22.14
2017-10-14T23:25:55.749Z,22.14
2017-10-14T23:30:00.255Z,22.14
2017-10-14T23:34:03.707Z,22.13
2017-10-14T23:38:07.179Z,22.11
2017-10-14T23:42:10.644Z,22.11
2017-10-14T23:46:14.130Z,22.05
2017-10-14T23:50:17.595Z,22.04
2017-10-14T23:54:21.079Z,21.99
2017-10-14T23:58:24.531Z,21.96
